Time,TemperatureF,DewpointF,PressureIn,WindDirection,WindDirectionDegrees,WindSpeedMPH,WindSpeedGustMPH,Humidity,HourlyPrecipIn,Conditions,Clouds,dailyrainin,SoftwareType,DateUTC
2013-01-18 00:00:00,62.2,52.3,30.11,NW,304,9.0,21.0,70,0.00,CLR,,0.00,WeatherDisplay:10.37,2013-01-18 05:00:00,
2013-01-18 00:10:00,62.1,53.3,30.12,NW,305,12.0,21.0,73,0.00,CLR,,0.00,WeatherDisplay:10.37,2013-01-18 05:10:00,
2013-01-18 00:20:00,62.1,52.9,30.12,WNW,302,10.0,20.0,72,0.00,CLR,,0.00,WeatherDisplay:10.37,2013-01-18 05:20:00,
2013-01-18 00:30:00,62.1,53.0,30.12,NW,308,8.0,20.0,72,0.00,CLR,,0.00,WeatherDisplay:10.37,2013-01-18 05:30:00,
2013-01-18 00:40:00,61.8,52.3,30.12,NW,314,10.0,18.0,71,0.00,CLR,,0.00,WeatherDisplay:10.37,2013-01-18 05:40:00,
2013-01-18 00:50:00,61.8,53.4,30.12,WNW,299,6.0,20.0,74,0.00,CLR,,0.00,WeatherDisplay:10.37,2013-01-18 05:50:00,
2013-01-18 01:00:00,61.6,52.5,30.13,WNW,291,15.0,22.0,72,0.00,CLR,,0.00,WeatherDisplay:10.37,2013-01-18 06:00:00,
2013-01-18 01:10:00,61.5,52.8,30.12,WNW,299,10.0,22.0,73,0.00,CLR,,0.00,WeatherDisplay:10.37,2013-01-18 06:10:00,
2013-01-18 01:20:00,61.3,51.8,30.13,WNW,299,9.0,18.0,71,0.00,CLR,,0.00,WeatherDisplay:10.37,2013-01-18 06:20:00,
2013-01-18 01:30:00,61.3,52.2,30.12,WNW,289,9.0,21.0,72,0.00,CLR,,0.00,WeatherDisplay:10.37,2013-01-18 06:30:00,
2013-01-18 01:40:00,61.1,51.6,30.12,NW,318,12.0,20.0,71,0.00,CLR,,0.00,WeatherDisplay:10.37,2013-01-18 06:40:00,
2013-01-18 01:50:00,61.1,51.6,30.12,WNW,302,10.0,20.0,71,0.00,CLR,,0.00,WeatherDisplay:10.37,2013-01-18 06:50:00,
2013-01-18 02:10:00,60.9,51.4,30.12,NW,307,10.0,20.0,71,0.00,CLR,,0.00,WeatherDisplay:10.37,2013-01-18 07:10:00,
2013-01-18 02:20:00,60.8,52.1,30.12,NW,306,10.0,20.0,73,0.00,CLR,,0.00,WeatherDisplay:10.37,2013-01-18 07:20:00,
2013-01-18 02:30:00,60.6,51.1,30.12,WNW,297,10.0,22.0,71,0.00,CLR,,0.00,WeatherDisplay:10.37,2013-01-18 07:30:00,
2013-01-18 02:40:00,60.5,51.0,30.12,WNW,288,8.0,18.0,71,0.00,CLR,,0.00,WeatherDisplay:10.37,2013-01-18 07:40:00,
2013-01-18 02:50:00,60.5,51.8,30.12,WNW,294,10.0,20.0,73,0.00,CLR,,0.00,WeatherDisplay:10.37,2013-01-18 07:50:00,
2013-01-18 03:00:00,60.4,52.4,30.12,NW,310,6.0,17.0,75,0.00,CLR,,0.00,WeatherDisplay:10.37,2013-01-18 08:00:00,
2013-01-18 03:10:00,60.0,52.1,30.12,NW,306,7.0,15.0,75,0.00,CLR,,0.00,WeatherDisplay:10.37,2013-01-18 08:10:00,
2013-01-18 03:20:00,59.6,51.3,30.13,NNW,328,7.0,15.0,74,0.00,CLR,,0.00,WeatherDisplay:10.37,2013-01-18 08:20:00,
2013-01-18 03:30:00,59.5,51.2,30.13,WNW,302,8.0,15.0,74,0.00,CLR,,0.00,WeatherDisplay:10.37,2013-01-18 08:30:00,
2013-01-18 03:40:00,59.4,51.1,30.13,NW,322,6.0,17.0,74,0.00,CLR,,0.00,WeatherDisplay:10.37,2013-01-18 08:40:00,
2013-01-18 03:50:00,59.0,51.1,30.13,NW,326,6.0,12.0,75,0.00,CLR,,0.00,WeatherDisplay:10.37,2013-01-18 08:50:00,
2013-01-18 04:00:00,58.4,50.1,30.14,NNW,343,8.0,16.0,74,0.00,CLR,,0.00,WeatherDisplay:10.37,2013-01-18 09:00:00,
2013-01-18 04:10:00,57.8,49.6,30.14,NNW,342,6.0,14.0,74,0.00,CLR,,0.00,WeatherDisplay:10.37,2013-01-18 09:10:00,
2013-01-18 04:20:00,57.3,49.0,30.14,NNW,337,7.0,13.0,74,0.00,CLR,,0.00,WeatherDisplay:10.37,2013-01-18 09:20:00,
2013-01-18 04:30:00,56.8,49.0,30.14,NNW,343,5.0,14.0,75,0.00,CLR,,0.00,WeatherDisplay:10.37,2013-01-18 09:30:00,
2013-01-18 04:40:00,56.6,48.8,30.14,NNW,336,6.0,13.0,75,0.00,CLR,,0.00,WeatherDisplay:10.37,2013-01-18 09:40:00,
2013-01-18 04:50:00,56.4,48.6,30.14,NNW,346,8.0,13.0,75,0.00,CLR,,0.00,WeatherDisplay:10.37,2013-01-18 09:50:00,
2013-01-18 05:00:00,56.1,49.0,30.15,North,349,5.0,14.0,77,0.00,CLR,,0.00,WeatherDisplay:10.37,2013-01-18 10:00:00,
2013-01-18 05:10:00,55.8,48.3,30.15,NNW,345,8.0,13.0,76,0.00,CLR,,0.00,WeatherDisplay:10.37,2013-01-18 10:10:00,
2013-01-18 05:30:00,55.4,48.3,30.16,North,4,6.0,12.0,77,0.00,CLR,,0.00,WeatherDisplay:10.37,2013-01-18 10:30:00,
2013-01-18 05:40:00,55.3,48.6,30.16,NNW,342,7.0,13.0,78,0.00,CLR,,0.00,WeatherDisplay:10.37,2013-01-18 10:40:00,
2013-01-18 05:50:00,55.1,48.7,30.16,NNW,344,8.0,14.0,79,0.00,CLR,,0.00,WeatherDisplay:10.37,2013-01-18 10:50:00,
2013-01-18 06:00:00,54.8,48.0,30.16,NNW,343,6.0,16.0,78,0.00,CLR,,0.00,WeatherDisplay:10.37,2013-01-18 11:00:00,
2013-01-18 06:10:00,54.5,47.8,30.17,NNW,335,5.0,14.0,78,0.00,CLR,,0.00,WeatherDisplay:10.37,2013-01-18 11:10:00,
2013-01-18 06:20:00,54.3,48.0,30.17,North,358,5.0,12.0,79,0.00,CLR,,0.00,WeatherDisplay:10.37,2013-01-18 11:20:00,
2013-01-18 06:30:00,54.2,47.5,30.18,NNW,340,7.0,15.0,78,0.00,CLR,,0.00,WeatherDisplay:10.37,2013-01-18 11:30:00,
2013-01-18 06:40:00,54.2,47.8,30.18,North,351,5.0,14.0,79,0.00,CLR,,0.00,WeatherDisplay:10.37,2013-01-18 11:40:00,
2013-01-18 06:50:00,54.0,47.3,30.19,NNW,343,6.0,15.0,78,0.00,CLR,,0.00,WeatherDisplay:10.37,2013-01-18 11:50:00,
2013-01-18 07:00:00,54.1,47.4,30.19,NNW,342,5.0,14.0,78,0.00,CLR,,0.00,WeatherDisplay:10.37,2013-01-18 12:00:00,
2013-01-18 07:10:00,53.9,47.9,30.20,NNW,334,7.0,12.0,80,0.00,CLR,,0.00,WeatherDisplay:10.37,2013-01-18 12:10:00,
2013-01-18 07:20:00,53.6,46.9,30.20,North,349,9.0,13.0,78,0.00,CLR,,0.00,WeatherDisplay:10.37,2013-01-18 12:20:00,
2013-01-18 07:30:00,52.1,44.1,30.22,NNW,340,10.0,17.0,74,0.00,CLR,,0.00,WeatherDisplay:10.37,2013-01-18 12:30:00,
2013-01-18 07:40:00,50.7,42.7,30.23,NNW,346,7.0,17.0,74,0.00,CLR,,0.00,WeatherDisplay:10.37,2013-01-18 12:40:00,
2013-01-18 07:50:00,49.9,41.5,30.23,NNW,347,10.0,16.0,73,0.00,CLR,,0.00,WeatherDisplay:10.37,2013-01-18 12:50:00,
2013-01-18 10:50:00,52.2,42.7,30.27,ENE,63,5.0,12.0,70,0.00,CLR,,0.00,WeatherDisplay:10.37,2013-01-18 15:50:00,
2013-01-18 11:00:00,52.8,42.5,30.27,ENE,76,5.0,13.0,68,0.00,CLR,,0.00,WeatherDisplay:10.37,2013-01-18 16:00:00,
2013-01-18 11:10:00,53.6,43.7,30.26,East,79,2.0,9.0,69,0.00,CLR,,0.00,WeatherDisplay:10.37,2013-01-18 16:10:00,
2013-01-18 11:20:00,54.1,43.8,30.27,East,90,7.0,12.0,68,0.00,CLR,,0.00,WeatherDisplay:10.37,2013-01-18 16:20:00,
2013-01-18 11:30:00,54.3,43.6,30.26,ENE,66,9.0,15.0,67,0.00,CLR,,0.00,WeatherDisplay:10.37,2013-01-18 16:30:00,
2013-01-18 11:40:00,54.9,43.8,30.26,ENE,74,7.0,13.0,66,0.00,CLR,,0.00,WeatherDisplay:10.37,2013-01-18 16:40:00,
2013-01-18 11:50:00,55.4,44.6,30.25,ENE,66,6.0,10.0,67,0.00,CLR,,0.00,WeatherDisplay:10.37,2013-01-18 16:50:00,
2013-01-18 12:00:00,55.7,45.3,30.25,ENE,57,5.0,10.0,68,0.00,CLR,,0.00,WeatherDisplay:10.37,2013-01-18 17:00:00,
2013-01-18 12:10:00,56.6,45.3,30.25,ENE,64,8.0,12.0,66,0.00,CLR,,0.00,WeatherDisplay:10.37,2013-01-18 17:10:00,
2013-01-18 12:20:00,57.3,46.0,30.24,ENE,74,5.0,10.0,66,0.00,CLR,,0.00,WeatherDisplay:10.37,2013-01-18 17:20:00,
2013-01-18 12:30:00,57.5,46.2,30.23,NE,55,2.0,10.0,66,0.00,CLR,,0.00,WeatherDisplay:10.37,2013-01-18 17:30:00,
2013-01-18 12:40:00,57.6,46.3,30.22,East,87,3.0,8.0,66,0.00,CLR,,0.00,WeatherDisplay:10.37,2013-01-18 17:40:00,
2013-01-18 12:50:00,57.9,47.0,30.22,ENE,57,3.0,8.0,67,0.00,CLR,,0.00,WeatherDisplay:10.37,2013-01-18 17:50:00,
2013-01-18 13:00:00,59.5,47.7,30.21,East,83,2.0,10.0,65,0.00,CLR,,0.00,WeatherDisplay:10.37,2013-01-18 18:00:00,
2013-01-18 13:10:00,59.2,47.0,30.21,NE,41,2.0,7.0,64,0.00,CLR,,0.00,WeatherDisplay:10.37,2013-01-18 18:10:00,
2013-01-18 13:20:00,60.0,48.2,30.20,ENE,65,1.0,13.0,65,0.00,CLR,,0.00,WeatherDisplay:10.37,2013-01-18 18:20:00,
2013-01-18 13:30:00,59.8,48.4,30.20,East,91,6.0,9.0,66,0.00,CLR,,0.00,WeatherDisplay:10.37,2013-01-18 18:30:00,
2013-01-18 13:40:00,60.0,48.2,30.19,NE,50,3.0,10.0,65,0.00,CLR,,0.00,WeatherDisplay:10.37,2013-01-18 18:40:00,
2013-01-18 13:50:00,60.7,49.2,30.19,NE,38,5.0,13.0,66,0.00,CLR,,0.00,WeatherDisplay:10.37,2013-01-18 18:50:00,
2013-01-18 14:00:00,61.8,49.5,30.19,NE,56,5.0,12.0,64,0.00,CLR,,0.00,WeatherDisplay:10.37,2013-01-18 19:00:00,
2013-01-18 14:10:00,61.8,49.1,30.18,NE,36,5.0,12.0,63,0.00,CLR,,0.00,WeatherDisplay:10.37,2013-01-18 19:10:00,
2013-01-18 14:20:00,62.6,50.2,30.18,NE,45,7.0,12.0,64,0.00,CLR,,0.00,WeatherDisplay:10.37,2013-01-18 19:20:00,
2013-01-18 14:30:00,63.7,50.4,30.18,ENE,57,3.0,14.0,62,0.00,CLR,,0.00,WeatherDisplay:10.37,2013-01-18 19:30:00,
2013-01-18 14:40:00,63.9,51.1,30.18,ENE,74,7.0,12.0,63,0.00,CLR,,0.00,WeatherDisplay:10.37,2013-01-18 19:40:00,
2013-01-18 14:50:00,64.1,51.2,30.17,NE,51,2.0,10.0,63,0.00,CLR,,0.00,WeatherDisplay:10.37,2013-01-18 19:50:00,
2013-01-18 15:00:00,63.9,50.2,30.18,ENE,66,3.0,12.0,61,0.00,CLR,,0.00,WeatherDisplay:10.37,2013-01-18 20:00:00,
2013-01-18 15:10:00,63.9,51.0,30.17,NE,53,2.0,12.0,63,0.00,CLR,,0.00,WeatherDisplay:10.37,2013-01-18 20:10:00,
2013-01-18 15:20:00,64.4,51.5,30.17,ENE,62,1.0,9.0,63,0.00,CLR,,0.00,WeatherDisplay:10.37,2013-01-18 20:20:00,
2013-01-18 15:30:00,64.7,51.8,30.17,ENE,64,3.0,9.0,63,0.00,CLR,,0.00,WeatherDisplay:10.37,2013-01-18 20:30:00,
2013-01-18 15:40:00,64.7,52.2,30.17,ENE,61,5.0,8.0,64,0.00,CLR,,0.00,WeatherDisplay:10.37,2013-01-18 20:40:00,
2013-01-18 15:50:00,65.0,52.1,30.17,NE,55,2.0,12.0,63,0.00,CLR,,0.00,WeatherDisplay:10.37,2013-01-18 20:50:00,
2013-01-18 16:00:00,64.8,52.3,30.17,NE,48,6.0,13.0,64,0.00,CLR,,0.00,WeatherDisplay:10.37,2013-01-18 21:00:00,
2013-01-18 16:10:00,65.5,53.0,30.17,NNE,20,3.0,10.0,64,0.00,CLR,,0.00,WeatherDisplay:10.37,2013-01-18 21:10:00,
2013-01-18 16:20:00,66.3,52.9,30.17,NE,53,3.0,10.0,62,0.00,CLR,,0.00,WeatherDisplay:10.37,2013-01-18 21:20:00,
2013-01-18 16:30:00,65.9,53.8,30.17,NE,39,5.0,9.0,65,0.00,CLR,,0.00,WeatherDisplay:10.37,2013-01-18 21:30:00,
2013-01-18 16:40:00,65.7,53.6,30.17,NE,37,3.0,9.0,65,0.00,CLR,,0.00,WeatherDisplay:10.37,2013-01-18 21:40:00,
2013-01-18 16:50:00,65.8,53.7,30.17,NNE,20,3.0,6.0,65,0.00,CLR,,0.00,WeatherDisplay:10.37,2013-01-18 21:50:00,
2013-01-18 17:00:00,65.9,54.2,30.17,NE,56,1.0,7.0,66,0.00,CLR,,0.00,WeatherDisplay:10.37,2013-01-18 22:00:00,
2013-01-18 17:10:00,65.9,54.6,30.18,NE,43,5.0,8.0,67,0.00,CLR,,0.00,WeatherDisplay:10.37,2013-01-18 22:10:00,
2013-01-18 17:20:00,65.9,54.6,30.18,NE,51,1.0,7.0,67,0.00,CLR,,0.00,WeatherDisplay:10.37,2013-01-18 22:20:00,
2013-01-18 17:30:00,66.1,54.8,30.18,NE,40,3.0,9.0,67,0.00,CLR,,0.00,WeatherDisplay:10.37,2013-01-18 22:30:00,
2013-01-18 17:40:00,66.2,54.5,30.18,NE,38,2.0,8.0,66,0.00,CLR,,0.00,WeatherDisplay:10.37,2013-01-18 22:40:00,
2013-01-18 17:50:00,66.0,54.7,30.18,NNE,28,1.0,5.0,67,0.00,CLR,,0.00,WeatherDisplay:10.37,2013-01-18 22:50:00,
2013-01-18 18:00:00,65.7,54.8,30.18,NNE,19,3.0,5.0,68,0.00,CLR,,0.00,WeatherDisplay:10.37,2013-01-18 23:00:00,
2013-01-18 18:10:00,65.4,55.0,30.19,NNE,26,1.0,8.0,69,0.00,CLR,,0.00,WeatherDisplay:10.37,2013-01-18 23:10:00,
2013-01-18 18:20:00,65.1,54.7,30.18,NNE,26,5.0,8.0,69,0.00,CLR,,0.00,WeatherDisplay:10.37,2013-01-18 23:20:00,
2013-01-18 18:30:00,65.1,55.0,30.19,NNE,21,1.0,10.0,70,0.00,CLR,,0.00,WeatherDisplay:10.37,2013-01-18 23:30:00,
2013-01-18 18:40:00,64.8,54.8,30.19,NE,45,5.0,8.0,70,0.00,CLR,,0.00,WeatherDisplay:10.37,2013-01-18 23:40:00,
2013-01-18 18:50:00,64.7,55.1,30.19,NE,41,3.0,7.0,71,0.00,CLR,,0.00,WeatherDisplay:10.37,2013-01-18 23:50:00,
2013-01-18 19:00:00,64.4,55.2,30.19,NNE,19,2.0,7.0,72,0.00,CLR,,0.00,WeatherDisplay:10.37,2013-01-19 00:00:00,
2013-01-18 19:10:00,64.2,55.4,30.19,NE,41,2.0,4.0,73,0.00,CLR,,0.00,WeatherDisplay:10.37,2013-01-19 00:10:00,
2013-01-18 19:20:00,64.0,55.2,30.20,North,8,2.0,5.0,73,0.00,CLR,,0.00,WeatherDisplay:10.37,2013-01-19 00:20:00,
2013-01-18 19:30:00,63.8,55.7,30.20,NNE,14,1.0,4.0,75,0.00,CLR,,0.00,WeatherDisplay:10.37,2013-01-19 00:30:00,
2013-01-18 19:40:00,63.9,55.8,30.20,NNE,23,2.0,6.0,75,0.00,CLR,,0.00,WeatherDisplay:10.37,2013-01-19 00:40:00,
2013-01-18 19:50:00,64.2,56.1,30.21,NNE,22,2.0,5.0,75,0.00,CLR,,0.00,WeatherDisplay:10.37,2013-01-19 00:50:00,
2013-01-18 20:00:00,64.2,56.4,30.20,NNE,22,3.0,7.0,76,0.00,CLR,,0.00,WeatherDisplay:10.37,2013-01-19 01:00:00,
2013-01-18 20:10:00,63.9,56.5,30.20,NNE,17,1.0,6.0,77,0.00,CLR,,0.00,WeatherDisplay:10.37,2013-01-19 01:10:00,
2013-01-18 20:20:00,63.6,56.6,30.20,NNE,21,2.0,5.0,78,0.00,CLR,,0.00,WeatherDisplay:10.37,2013-01-19 01:20:00,
2013-01-18 20:30:00,63.3,56.3,30.20,North,3,1.0,5.0,78,0.00,CLR,,0.00,WeatherDisplay:10.37,2013-01-19 01:30:00,
2013-01-18 20:40:00,63.2,56.2,30.21,North,8,5.0,8.0,78,0.00,CLR,,0.00,WeatherDisplay:10.37,2013-01-19 01:40:00,
2013-01-18 20:50:00,63.1,56.1,30.21,NNE,12,3.0,9.0,78,0.00,CLR,,0.00,WeatherDisplay:10.37,2013-01-19 01:50:00,
2013-01-18 21:00:00,63.0,56.0,30.21,NNE,27,3.0,8.0,78,0.00,CLR,,0.00,WeatherDisplay:10.37,2013-01-19 02:00:00,
2013-01-18 21:10:00,62.8,56.2,30.21,NNE,21,3.0,7.0,79,0.00,CLR,,0.00,WeatherDisplay:10.37,2013-01-19 02:10:00,
2013-01-18 21:20:00,62.7,56.4,30.21,NNE,18,6.0,9.0,80,0.00,CLR,,0.00,WeatherDisplay:10.37,2013-01-19 02:20:00,
2013-01-18 21:30:00,62.5,56.9,30.22,North,2,6.0,10.0,82,0.00,CLR,,0.00,WeatherDisplay:10.37,2013-01-19 02:30:00,
2013-01-18 21:40:00,62.3,57.1,30.22,North,11,5.0,9.0,83,0.00,CLR,,0.00,WeatherDisplay:10.37,2013-01-19 02:40:00,
2013-01-18 21:50:00,62.1,57.2,30.22,NNE,18,6.0,9.0,84,0.00,CLR,,0.00,WeatherDisplay:10.37,2013-01-19 02:50:00,
2013-01-18 22:00:00,61.9,57.3,30.22,NNE,13,3.0,12.0,85,0.00,CLR,,0.00,WeatherDisplay:10.37,2013-01-19 03:00:00,
2013-01-18 22:10:00,61.7,57.5,30.22,NNE,13,5.0,10.0,86,0.00,CLR,,0.00,WeatherDisplay:10.37,2013-01-19 03:10:00,
2013-01-18 22:20:00,61.4,57.5,30.22,North,3,6.0,10.0,87,0.00,CLR,,0.00,WeatherDisplay:10.37,2013-01-19 03:20:00,
2013-01-18 22:30:00,61.2,57.6,30.21,North,11,7.0,12.0,88,0.00,CLR,,0.00,WeatherDisplay:10.37,2013-01-19 03:30:00,
2013-01-18 22:40:00,61.1,57.8,30.21,NNE,22,2.0,12.0,89,0.00,CLR,,0.00,WeatherDisplay:10.37,2013-01-19 03:40:00,
2013-01-18 22:50:00,61.0,57.7,30.21,NNE,20,3.0,9.0,89,0.00,CLR,,0.00,WeatherDisplay:10.37,2013-01-19 03:50:00,
2013-01-18 23:00:00,60.8,57.8,30.21,NNE,13,6.0,9.0,90,0.00,CLR,,0.00,WeatherDisplay:10.37,2013-01-19 04:00:00,
2013-01-18 23:10:00,60.7,58.1,30.21,NNE,19,6.0,12.0,91,0.00,CLR,,0.00,WeatherDisplay:10.37,2013-01-19 04:10:00,
2013-01-18 23:20:00,60.5,57.9,30.21,NNE,23,3.0,10.0,91,0.00,CLR,,0.00,WeatherDisplay:10.37,2013-01-19 04:20:00,
2013-01-18 23:30:00,60.5,57.9,30.21,NNE,24,2.0,9.0,91,0.00,CLR,,0.00,WeatherDisplay:10.37,2013-01-19 04:30:00,
2013-01-18 23:40:00,60.4,58.1,30.21,NNE,29,3.0,8.0,92,0.00,CLR,,0.00,WeatherDisplay:10.37,2013-01-19 04:40:00,
2013-01-18 23:50:00,60.3,58.0,30.20,NNE,16,3.0,8.0,92,0.00,CLR,,0.00,WeatherDisplay:10.37,2013-01-19 04:50:00,